Time;durP1;ratioP1;P1;durP2;ratioP2;P2;SDS_P1;SDS_P2;PMS_P1;PMS_P2;Temp;Humidity;BMP_temperature;BMP_pressure;BME280_temperature;BME280_humidity;BME280_pressure;Samples;Min_cycle;Max_cycle;Signal;HPM_P1;HPM_P2
2022/06/03 00:02:13;;;;;;;2.47;2.28;;;15.60;99.90;;;;;;5239268;28;20044;-78
2022/06/03 00:05:06;;;;;;;9.55;2.72;;;15.60;99.90;;;;;;5244340;28;20048;-75
2022/06/03 00:07:44;;;;;;;2.53;2.22;;;15.40;99.90;;;;;;5235835;28;20031;-80
2022/06/03 00:10:50;;;;;;;3.38;2.50;;;15.40;99.90;;;;;;5235891;28;20336;-78
2022/06/03 00:13:42;;;;;;;2.72;2.53;;;15.30;99.90;;;;;;5219003;28;20063;-78
2022/06/03 00:16:50;;;;;;;2.33;2.13;;;15.30;99.90;;;;;;5219375;28;20475;-77
2022/06/03 00:19:49;;;;;;;2.83;2.53;;;15.30;99.90;;;;;;5253337;28;20031;-80
2022/06/03 00:22:45;;;;;;;2.40;2.20;;;15.30;99.90;;;;;;5234986;28;20037;-76
2022/06/03 00:25:51;;;;;;;2.47;2.20;;;15.20;99.90;;;;;;5234782;28;20028;-75
2022/06/03 00:28:52;;;;;;;2.50;2.30;;;15.30;99.90;;;;;;5254393;28;20500;-76
2022/06/03 00:31:48;;;;;;;2.60;2.40;;;15.30;99.90;;;;;;5254433;28;20238;-77
2022/06/03 00:34:50;;;;;;;3.28;2.22;;;15.30;99.90;;;;;;5254157;28;20017;-75
2022/06/03 00:37:27;;;;;;;3.00;2.35;;;15.20;99.90;;;;;;5235626;28;20032;-76
2022/06/03 00:40:20;;;;;;;3.72;3.03;;;15.20;99.90;;;;;;5251473;28;20024;-78
2022/06/03 00:43:17;;;;;;;2.38;2.17;;;15.20;99.90;;;;;;5238679;28;20032;-76
2022/06/03 00:46:16;;;;;;;2.70;2.50;;;15.10;99.90;;;;;;5240071;28;20459;-80
2022/06/03 00:49:11;;;;;;;3.50;2.63;;;15.10;99.90;;;;;;5255230;28;20024;-77
2022/06/03 00:51:58;;;;;;;;;;;15.00;99.90;;;;;;5238953;28;20042;-77
2022/06/03 00:54:44;;;;;;;2.13;1.92;;;14.90;99.90;;;;;;5273877;28;19900;-75
2022/06/03 00:57:52;;;;;;;3.08;2.63;;;14.90;99.90;;;;;;5273611;28;20015;-75
2022/06/03 01:00:29;;;;;;;2.13;2.00;;;14.80;99.90;;;;;;5251728;28;20029;-79
2022/06/03 01:03:42;;;;;;;3.55;2.67;;;14.80;99.90;;;;;;5234300;28;20038;-75
2022/06/03 01:06:46;;;;;;;2.88;2.60;;;14.70;99.90;;;;;;5241125;28;20051;-77
2022/06/03 01:09:45;;;;;;;2.60;2.40;;;14.70;99.90;;;;;;5252372;28;20038;-75
2022/06/03 01:12:22;;;;;;;2.83;2.38;;;14.70;99.90;;;;;;5252287;28;20028;-77
2022/06/03 01:15:24;;;;;;;3.90;2.67;;;14.70;99.90;;;;;;5245869;28;20444;-79
2022/06/03 01:18:23;;;;;;;2.90;2.55;;;14.60;99.90;;;;;;5213932;28;20294;-77
2022/06/03 01:21:18;;;;;;;3.15;2.42;;;14.50;99.90;;;;;;5213912;28;20025;-78
2022/06/03 01:24:24;;;;;;;2.58;2.38;;;14.60;99.90;;;;;;5252901;28;20028;-76
2022/06/03 01:27:14;;;;;;;;;;;14.60;99.90;;;;;;5253473;28;20027;-76
2022/06/03 01:30:03;;;;;;;2.90;2.60;;;14.60;99.90;;;;;;5254336;28;19911;-78
2022/06/03 01:32:48;;;;;;;2.97;2.50;;;14.60;99.90;;;;;;5234289;28;20036;-76
2022/06/03 01:35:49;;;;;;;3.00;2.70;;;14.60;99.90;;;;;;5234152;28;20042;-77
2022/06/03 01:38:24;;;;;;;2.67;2.35;;;14.60;99.90;;;;;;5238342;28;20016;-77
2022/06/03 01:41:33;;;;;;;2.83;2.45;;;14.60;99.90;;;;;;5255510;28;20032;-75
2022/06/03 01:44:26;;;;;;;3.60;2.65;;;14.50;99.90;;;;;;5272801;28;20028;-77
2022/06/03 01:47:15;;;;;;;2.53;2.33;;;14.40;99.90;;;;;;5251233;28;20020;-77
2022/06/03 01:50:28;;;;;;;2.47;2.28;;;14.40;99.90;;;;;;5251778;28;20059;-77
2022/06/03 01:53:18;;;;;;;4.43;2.47;;;14.40;99.90;;;;;;5243742;28;20039;-80
2022/06/03 01:56:17;;;;;;;2.72;2.50;;;14.40;99.90;;;;;;5232924;28;20021;-77
2022/06/03 01:59:25;;;;;;;2.58;2.22;;;14.40;99.90;;;;;;5251859;28;20021;-78
2022/06/03 02:02:18;;;;;;;2.70;2.47;;;14.30;99.90;;;;;;5234314;28;20028;-76
2022/06/03 02:05:35;;;;;;;3.35;2.78;;;14.30;99.90;;;;;;5236464;28;20044;-75
2022/06/03 02:08:42;;;;;;;2.60;2.40;;;14.20;99.90;;;;;;5230397;28;20036;-76
2022/06/03 02:11:38;;;;;;;3.72;2.20;;;14.30;99.90;;;;;;5271242;28;20028;-76
2022/06/03 02:14:37;;;;;;;4.25;2.65;;;14.20;99.90;;;;;;5254193;28;20050;-80
2022/06/03 02:17:37;;;;;;;2.35;2.10;;;14.20;99.90;;;;;;5237792;28;20588;-76
2022/06/03 02:20:30;;;;;;;2.75;2.55;;;14.10;99.90;;;;;;5269171;28;20046;-78
2022/06/03 02:23:44;;;;;;;3.15;2.20;;;14.10;99.90;;;;;;5230770;28;20398;-75
2022/06/03 02:26:53;;;;;;;3.55;2.42;;;14.00;99.90;;;;;;5251108;28;20024;-80
2022/06/03 02:32:46;;;;;;;2.83;2.55;;;13.90;99.90;;;;;;5248746;28;20369;-79
2022/06/03 02:35:54;;;;;;;4.20;2.65;;;13.80;99.90;;;;;;5261045;28;20439;-77
2022/06/03 02:38:53;;;;;;;3.08;2.80;;;13.80;99.90;;;;;;5250246;28;20025;-76
2022/06/03 02:41:48;;;;;;;3.60;2.65;;;13.80;99.90;;;;;;5252673;28;20207;-78
2022/06/03 02:45:03;;;;;;;3.90;2.70;;;13.80;99.90;;;;;;5251307;28;20031;-75
2022/06/03 02:47:46;;;;;;;2.90;2.70;;;13.70;99.90;;;;;;5228535;28;20036;-75
2022/06/03 02:50:32;;;;;;;2.72;2.53;;;13.70;99.90;;;;;;5231969;28;20021;-78
2022/06/03 02:53:28;;;;;;;3.85;3.13;;;13.60;99.90;;;;;;5226361;28;20033;-80
2022/06/03 02:56:28;;;;;;;6.38;3.15;;;13.60;99.90;;;;;;5242721;28;20509;-78
2022/06/03 02:59:24;;;;;;;3.00;2.58;;;13.50;99.90;;;;;;5232005;28;20021;-75
2022/06/03 03:02:12;;;;;;;2.88;2.42;;;13.50;99.90;;;;;;5250303;28;20017;-78
2022/06/03 03:05:07;;;;;;;4.40;3.20;;;13.50;99.90;;;;;;5240518;28;20040;-78
2022/06/03 03:07:39;;;;;;;;;;;13.50;99.90;;;;;;5250626;28;20021;-78
2022/06/03 03:10:41;;;;;;;3.28;2.97;;;13.50;99.90;;;;;;5268778;28;20228;-78
2022/06/03 03:13:47;;;;;;;2.63;2.42;;;13.40;99.90;;;;;;5253544;28;20024;-77
2022/06/03 03:16:32;;;;;;;3.53;2.60;;;13.40;99.90;;;;;;5241356;28;20035;-75
2022/06/03 03:19:16;;;;;;;4.30;3.00;;;13.50;99.90;;;;;;5215858;28;20032;-77
2022/06/03 03:22:02;;;;;;;2.88;2.60;;;13.50;99.90;;;;;;5235142;28;20021;-76
2022/06/03 03:25:17;;;;;;;5.05;3.17;;;13.50;99.90;;;;;;5255551;28;20016;-78
2022/06/03 03:28:14;;;;;;;3.17;2.88;;;13.40;99.90;;;;;;5226156;28;20521;-77
2022/06/03 03:31:03;;;;;;;5.35;3.70;;;13.50;99.90;;;;;;5210611;28;20029;-78
2022/06/03 03:34:07;;;;;;;4.40;2.60;;;13.50;99.90;;;;;;5210343;28;20036;-77
2022/06/03 03:36:59;;;;;;;3.30;2.58;;;13.50;99.90;;;;;;5193757;28;20045;-77
2022/06/03 03:39:52;;;;;;;3.47;3.03;;;13.50;99.90;;;;;;5193614;28;20037;-76
2022/06/03 03:42:40;;;;;;;3.25;2.97;;;13.50;99.90;;;;;;5210431;28;20306;-77
2022/06/03 03:45:29;;;;;;;2.78;2.53;;;13.50;99.90;;;;;;5210616;28;20045;-77
2022/06/03 03:48:09;;;;;;;3.90;2.92;;;13.50;99.90;;;;;;5210607;28;20488;-79
2022/06/03 03:51:06;;;;;;;2.92;2.53;;;13.70;99.90;;;;;;5174334;28;20029;-79
2022/06/03 03:54:06;;;;;;;3.38;2.70;;;13.80;99.90;;;;;;5149129;28;20036;-78
2022/06/03 03:56:52;;;;;;;3.80;3.13;;;14.10;99.90;;;;;;5128553;29;20038;-80
2022/06/03 03:59:35;;;;;;;2.95;2.75;;;14.30;99.90;;;;;;5143168;28;20038;-82
2022/06/03 04:02:24;;;;;;;3.13;2.60;;;14.60;99.90;;;;;;5147208;28;20030;-82
2022/06/03 04:05:19;;;;;;;4.53;2.53;;;14.80;99.90;;;;;;5137709;28;20047;-79
2022/06/03 04:08:09;;;;;;;2.42;2.22;;;15.00;99.90;;;;;;5132740;28;20386;-83
2022/06/03 04:11:21;;;;;;;3.30;3.00;;;15.30;99.90;;;;;;5149912;28;20931;-79
2022/06/03 04:14:02;;;;;;;3.08;2.83;;;15.40;99.90;;;;;;5149192;28;20061;-79
2022/06/03 04:17:24;;;;;;;3.30;2.53;;;15.60;99.90;;;;;;5142528;28;20031;-80
2022/06/03 04:20:25;;;;;;;3.10;2.38;;;16.00;99.90;;;;;;5148564;28;20077;-79
2022/06/03 04:23:14;;;;;;;2.22;2.03;;;16.30;99.90;;;;;;5147906;28;20032;-79
2022/06/03 04:29:34;;;;;;;4.97;2.42;;;17.00;99.90;;;;;;5147949;28;20029;-81
2022/06/03 04:32:24;;;;;;;2.75;2.50;;;16.90;99.90;;;;;;5236428;28;20020;-81
2022/06/03 04:35:42;;;;;;;2.45;2.25;;;17.00;99.90;;;;;;5236200;28;20024;-82
2022/06/03 04:38:32;;;;;;;2.22;2.05;;;17.40;99.90;;;;;;5251505;28;20026;-80
2022/06/03 04:41:34;;;;;;;4.80;2.25;;;17.90;99.90;;;;;;5234143;28;20021;-80
2022/06/03 04:44:36;;;;;;;3.13;2.28;;;18.20;99.90;;;;;;5227822;28;20356;-78
2022/06/03 04:47:47;;;;;;;1.80;1.70;;;18.40;99.90;;;;;;5245546;28;20012;-80
2022/06/03 04:50:28;;;;;;;2.55;2.00;;;18.60;99.90;;;;;;5233342;28;20448;-78
2022/06/03 04:53:24;;;;;;;2.05;1.85;;;18.90;99.90;;;;;;5217892;28;20040;-79
2022/06/03 04:56:29;;;;;;;6.68;2.30;;;19.20;99.90;;;;;;5220938;28;20055;-81
2022/06/03 04:59:39;;;;;;;4.70;2.00;;;19.20;99.90;;;;;;5239693;28;20024;-77
2022/06/03 05:02:47;;;;;;;1.80;1.70;;;19.40;99.90;;;;;;5230357;28;20027;-77
2022/06/03 05:05:30;;;;;;;1.98;1.85;;;19.40;99.90;;;;;;5219694;28;20051;-79
2022/06/03 05:08:07;;;;;;;2.35;2.15;;;19.70;99.90;;;;;;5236752;28;20035;-79
2022/06/03 05:10:57;;;;;;;2.10;2.00;;;20.00;99.90;;;;;;5211397;28;20036;-80
2022/06/03 05:14:09;;;;;;;3.03;2.33;;;20.20;99.90;;;;;;5228192;28;20031;-80
2022/06/03 05:17:11;;;;;;;2.40;1.98;;;20.70;99.90;;;;;;5234036;28;20035;-80
2022/06/03 05:20:19;;;;;;;3.95;2.45;;;20.80;99.90;;;;;;5251823;28;20024;-80
2022/06/03 05:23:05;;;;;;;5.15;2.13;;;20.70;99.90;;;;;;5234204;28;20035;-81
2022/06/03 05:26:32;;;;;;;2.05;1.83;;;20.50;99.90;;;;;;5232119;28;20506;-80
2022/06/03 05:29:24;;;;;;;2.10;1.90;;;20.90;99.90;;;;;;5162739;28;20048;-79
2022/06/03 05:32:14;;;;;;;3.85;1.73;;;21.30;99.90;;;;;;5167527;28;20026;-78
2022/06/03 05:35:18;;;;;;;2.95;1.98;;;21.60;99.90;;;;;;5206548;28;20035;-79
2022/06/03 05:38:07;;;;;;;2.05;1.95;;;21.70;99.90;;;;;;5241885;28;20020;-77
2022/06/03 05:41:00;;;;;;;2.22;1.73;;;22.20;99.90;;;;;;5234679;28;20016;-80
2022/06/03 05:43:47;;;;;;;4.13;1.70;;;22.50;99.90;;;;;;5238824;28;20425;-78
2022/06/03 05:46:21;;;;;;;2.03;1.83;;;22.20;99.90;;;;;;5223228;28;20041;-78
2022/06/03 05:49:07;;;;;;;;;;;22.50;99.90;;;;;;5222831;28;20374;-79
2022/06/03 05:51:39;;;;;;;2.17;1.98;;;22.40;99.90;;;;;;5256373;28;19943;-80
2022/06/03 05:54:45;;;;;;;2.75;2.35;;;22.60;99.90;;;;;;5251500;28;20020;-79
2022/06/03 05:57:20;;;;;;;2.40;2.20;;;22.70;99.90;;;;;;5201236;28;20191;-81
2022/06/03 06:00:29;;;;;;;3.90;3.05;;;22.60;99.90;;;;;;5238690;28;20028;-81
2022/06/03 06:03:06;;;;;;;2.45;2.20;;;22.70;99.90;;;;;;5188496;28;20033;-78
2022/06/03 06:06:03;;;;;;;2.60;1.95;;;23.00;99.90;;;;;;5234159;28;20055;-80
2022/06/03 06:08:53;;;;;;;2.67;2.08;;;23.00;99.90;;;;;;5228497;28;20406;-80
2022/06/03 06:11:57;;;;;;;3.13;2.20;;;23.00;99.90;;;;;;5230080;28;20039;-80
2022/06/03 06:14:59;;;;;;;2.17;1.98;;;23.30;99.90;;;;;;5221703;28;20037;-80
2022/06/03 06:18:07;;;;;;;1.92;1.77;;;23.60;99.90;;;;;;5256274;28;20027;-80
2022/06/03 06:20:53;;;;;;;3.50;2.13;;;23.80;99.90;;;;;;5246093;28;20310;-78
2022/06/03 06:23:53;;;;;;;2.17;1.98;;;23.70;99.90;;;;;;5197794;28;20130;-80
2022/06/03 06:26:40;;;;;;;2.03;1.83;;;24.20;99.90;;;;;;5204661;28;20136;-77
2022/06/03 06:33:11;;;;;;;2.30;1.75;;;24.30;99.90;;;;;;5256630;28;20024;-79
2022/06/03 06:35:56;;;;;;;3.05;2.42;;;24.70;99.90;;;;;;5251138;28;20024;-77
2022/06/03 06:38:52;;;;;;;2.33;1.98;;;24.70;99.90;;;;;;5227472;28;20043;-79
2022/06/03 06:41:47;;;;;;;2.53;1.98;;;24.90;99.90;;;;;;5248885;28;20020;-79
2022/06/03 06:44:42;;;;;;;2.20;2.00;;;25.00;99.90;;;;;;5228284;28;20033;-78
2022/06/03 06:47:33;;;;;;;2.30;2.10;;;25.20;99.90;;;;;;5231297;28;20027;-81
2022/06/03 06:50:15;;;;;;;2.40;1.90;;;25.50;99.90;;;;;;5221336;28;20045;-81
2022/06/03 06:53:04;;;;;;;1.60;1.50;;;25.60;99.90;;;;;;5247861;28;20016;-80
2022/06/03 06:55:54;;;;;;;1.92;1.65;;;25.90;99.90;;;;;;5230371;28;20035;-78
2022/06/03 06:58:42;;;;;;;2.05;1.80;;;26.30;99.90;;;;;;5252238;28;20035;-80
2022/06/03 07:01:20;;;;;;;2.22;1.48;;;26.10;99.90;;;;;;5267397;28;20367;-83
2022/06/03 07:03:56;;;;;;;1.90;1.40;;;26.00;99.90;;;;;;5250081;28;20025;-80
2022/06/03 07:06:36;;;;;;;1.77;1.60;;;26.30;99.90;;;;;;5238565;28;20190;-80
2022/06/03 07:09:11;;;;;;;3.42;1.55;;;26.30;99.90;;;;;;5257254;28;20016;-79
2022/06/03 07:11:53;;;;;;;2.08;1.80;;;26.30;99.90;;;;;;5248989;28;20040;-79
2022/06/03 07:14:31;;;;;;;1.90;1.55;;;26.50;99.90;;;;;;5242540;28;20533;-79
2022/06/03 07:20:32;;;;;;;5.93;1.90;;;26.60;99.90;;;;;;5259544;28;20304;-80
2022/06/03 07:23:07;;;;;;;1.67;1.58;;;27.00;99.90;;;;;;5263121;28;20024;-79
2022/06/03 07:26:02;;;;;;;7.60;1.83;;;26.70;99.90;;;;;;5241947;28;20025;-80
2022/06/03 07:29:06;;;;;;;3.38;1.60;;;26.90;99.90;;;;;;5236259;28;20032;-78
2022/06/03 07:31:55;;;;;;;1.65;1.45;;;27.00;99.90;;;;;;5240216;28;20034;-79
2022/06/03 07:34:36;;;;;;;1.48;1.35;;;27.20;99.90;;;;;;5249164;28;20040;-78
2022/06/03 07:37:26;;;;;;;3.00;1.95;;;27.50;99.90;;;;;;5247103;28;20048;-81
2022/06/03 07:40:04;;;;;;;1.42;1.33;;;27.60;99.90;;;;;;5257023;28;20213;-78
2022/06/03 07:42:50;;;;;;;1.70;1.60;;;27.50;99.90;;;;;;5244788;28;20054;-78
2022/06/03 07:46:04;;;;;;;1.92;1.38;;;27.20;99.90;;;;;;5248768;28;20028;-79
2022/06/03 07:48:36;;;;;;;1.60;1.50;;;27.00;99.90;;;;;;5158171;28;20038;-79
2022/06/03 07:51:18;;;;;;;1.77;1.17;;;27.00;99.90;;;;;;5163394;28;20030;-78
2022/06/03 07:53:58;;;;;;;1.50;1.40;;;27.10;99.90;;;;;;5138334;28;20041;-80
2022/06/03 07:56:34;;;;;;;1.15;1.00;;;27.40;99.90;;;;;;5151859;28;20032;-78
2022/06/03 07:59:19;;;;;;;1.27;1.00;;;27.60;99.90;;;;;;5156321;28;20046;-78
2022/06/03 08:02:18;;;;;;;1.20;1.10;;;27.60;99.90;;;;;;5165169;28;20377;-78
2022/06/03 08:05:03;;;;;;;1.58;1.30;;;27.50;99.90;;;;;;5144476;28;20275;-78
2022/06/03 08:13:50;;;;;;;1.20;1.10;;;27.70;99.90;;;;;;5169537;28;20021;-77
2022/06/03 08:16:42;;;;;;;0.95;0.95;;;28.00;99.90;;;;;;5146965;28;20043;-78
2022/06/03 08:19:20;;;;;;;1.27;1.17;;;27.90;99.90;;;;;;5148559;28;20055;-78
2022/06/03 08:21:56;;;;;;;0.82;0.82;;;27.60;99.90;;;;;;5162954;28;20025;-76
2022/06/03 08:24:34;;;;;;;1.10;1.00;;;27.80;99.90;;;;;;5243232;28;20042;-81
2022/06/03 08:27:12;;;;;;;0.75;0.75;;;28.00;99.90;;;;;;5252334;28;20047;-77
2022/06/03 08:29:49;;;;;;;1.60;1.50;;;28.20;99.90;;;;;;5264533;28;20498;-79
2022/06/03 08:32:27;;;;;;;0.95;0.95;;;28.20;99.90;;;;;;5256415;28;20039;-77
2022/06/03 08:35:04;;;;;;;1.58;1.30;;;28.20;99.90;;;;;;5252240;28;20243;-79
2022/06/03 08:37:46;;;;;;;1.20;0.95;;;28.10;99.90;;;;;;5231903;28;20020;-78
2022/06/03 08:40:34;;;;;;;1.38;0.90;;;28.00;99.90;;;;;;5261636;28;20027;-77
2022/06/03 08:43:23;;;;;;;1.02;0.90;;;28.00;99.90;;;;;;5236186;28;20024;-79
2022/06/03 08:45:56;;;;;;;1.40;1.20;;;28.00;99.90;;;;;;5252462;28;20024;-79
2022/06/03 08:48:40;;;;;;;1.30;1.20;;;28.20;99.90;;;;;;5252194;28;20028;-79
2022/06/03 08:51:21;;;;;;;1.73;1.38;;;28.30;99.90;;;;;;5252279;28;20472;-79
2022/06/03 08:53:58;;;;;;;1.77;1.20;;;28.10;99.90;;;;;;5238216;28;20033;-78
2022/06/03 08:56:37;;;;;;;1.88;0.95;;;28.30;99.90;;;;;;5250164;28;20016;-79
2022/06/03 08:59:25;;;;;;;1.05;0.90;;;28.50;99.90;;;;;;5251486;28;20030;-80
2022/06/03 09:02:04;;;;;;;0.93;0.93;;;28.60;99.90;;;;;;5251337;28;20020;-80
2022/06/03 09:04:50;;;;;;;1.27;1.17;;;28.80;99.90;;;;;;5240769;28;20053;-77
2022/06/03 09:07:54;;;;;;;1.00;1.00;;;28.70;99.90;;;;;;5251000;28;20032;-78
2022/06/03 09:10:37;;;;;;;1.00;1.00;;;28.90;99.90;;;;;;5233337;28;20036;-77
2022/06/03 09:13:16;;;;;;;1.27;1.17;;;29.00;99.90;;;;;;5229720;28;20350;-78
2022/06/03 09:15:51;;;;;;;1.92;1.17;;;29.30;99.90;;;;;;5237823;28;20027;-79
2022/06/03 09:18:28;;;;;;;1.95;1.20;;;29.10;99.90;;;;;;5232211;28;20047;-77
2022/06/03 09:21:08;;;;;;;1.15;1.08;;;29.20;99.90;;;;;;5220173;28;20028;-76
2022/06/03 09:23:44;;;;;;;1.20;1.10;;;28.90;99.90;;;;;;5231067;28;20040;-78
2022/06/03 09:26:21;;;;;;;1.17;1.10;;;29.00;99.90;;;;;;5248629;28;20204;-76
2022/06/03 09:28:53;;;;;;;1.48;1.10;;;28.90;99.90;;;;;;5247935;28;20029;-81
2022/06/03 09:31:26;;;;;;;1.20;1.10;;;28.80;99.90;;;;;;5261204;28;20020;-78
2022/06/03 09:34:01;;;;;;;1.25;1.15;;;29.20;99.90;;;;;;5249630;28;20032;-79
2022/06/03 09:36:38;;;;;;;1.23;1.05;;;30.10;99.90;;;;;;5250126;28;20032;-79
2022/06/03 09:39:20;;;;;;;1.75;1.33;;;30.40;99.90;;;;;;5239653;28;20021;-77
2022/06/03 09:41:57;;;;;;;1.70;1.45;;;30.70;99.90;;;;;;5229427;28;20024;-78
2022/06/03 09:44:28;;;;;;;1.83;1.40;;;30.70;99.90;;;;;;5250779;28;20030;-79
2022/06/03 09:47:06;;;;;;;0.95;0.93;;;30.70;99.90;;;;;;5251384;28;20024;-77
2022/06/03 09:49:37;;;;;;;1.80;1.20;;;30.00;99.90;;;;;;5244950;28;20028;-79
2022/06/03 09:52:16;;;;;;;1.83;1.50;;;29.40;99.90;;;;;;5237797;28;20693;-77
2022/06/03 09:54:54;;;;;;;1.23;1.13;;;30.10;99.90;;;;;;5229160;28;20020;-79
2022/06/03 09:57:36;;;;;;;1.27;1.17;;;30.10;99.90;;;;;;5230820;28;20023;-79
2022/06/03 10:00:17;;;;;;;1.88;1.25;;;30.30;99.90;;;;;;5253179;28;20012;-79
2022/06/03 10:02:56;;;;;;;1.67;1.38;;;30.20;99.90;;;;;;5217182;28;20043;-78
2022/06/03 10:05:27;;;;;;;2.55;1.30;;;30.40;99.90;;;;;;5240050;28;20044;-77
2022/06/03 10:08:03;;;;;;;1.60;1.50;;;30.50;99.90;;;;;;5237516;28;20035;-79
2022/06/03 10:13:33;;;;;;;1.98;1.48;;;30.80;99.90;;;;;;5253535;28;20039;-80
2022/06/03 10:16:07;;;;;;;2.03;1.35;;;30.80;99.90;;;;;;5243181;28;20016;-79
2022/06/03 10:18:46;;;;;;;2.03;1.40;;;30.90;99.90;;;;;;5244619;28;20629;-78
2022/06/03 10:21:18;;;;;;;1.30;1.20;;;31.00;99.90;;;;;;5254295;28;20020;-80
2022/06/03 10:23:52;;;;;;;1.05;1.02;;;30.90;99.90;;;;;;5256149;28;20039;-78
2022/06/03 10:26:37;;;;;;;1.75;1.63;;;30.70;99.90;;;;;;5244923;28;20028;-79
2022/06/03 10:29:18;;;;;;;3.95;1.95;;;30.90;99.90;;;;;;5255076;28;20012;-78
2022/06/03 10:31:54;;;;;;;3.47;1.48;;;31.20;99.90;;;;;;5249788;28;20030;-76
2022/06/03 10:34:36;;;;;;;1.38;1.27;;;31.50;99.90;;;;;;5238159;28;20032;-78
2022/06/03 10:37:18;;;;;;;1.50;1.40;;;31.50;99.90;;;;;;5221601;28;20036;-78
2022/06/03 10:39:54;;;;;;;1.30;1.20;;;31.50;99.90;;;;;;5223880;28;20028;-77
2022/06/03 10:42:31;;;;;;;1.88;1.48;;;32.00;99.90;;;;;;5239972;28;20030;-79
2022/06/03 10:45:02;;;;;;;1.08;1.08;;;32.10;99.90;;;;;;5242044;28;20031;-79
2022/06/03 10:47:39;;;;;;;2.83;1.42;;;32.10;99.90;;;;;;5223587;28;20024;-80
2022/06/03 10:50:26;;;;;;;1.42;1.33;;;33.40;99.90;;;;;;5223779;28;20036;-78
2022/06/03 11:02:07;;;;;;;1.30;1.20;;;34.40;99.90;;;;;;5246761;28;20540;-78
2022/06/03 11:04:46;;;;;;;1.58;1.10;;;34.20;99.90;;;;;;5224979;28;20051;-78
2022/06/03 11:07:30;;;;;;;1.75;1.48;;;33.40;99.90;;;;;;5236687;28;20025;-77
2022/06/03 11:10:10;;;;;;;1.40;1.30;;;34.50;99.90;;;;;;5239922;28;20016;-78
2022/06/03 11:12:47;;;;;;;1.20;1.10;;;34.20;99.90;;;;;;5255691;28;20031;-76
2022/06/03 11:15:35;;;;;;;1.40;1.30;;;33.80;99.90;;;;;;5228484;28;20016;-80
2022/06/03 11:18:19;;;;;;;1.42;1.33;;;34.70;99.90;;;;;;5258331;28;20497;-79
2022/06/03 11:20:53;;;;;;;3.38;1.30;;;34.60;99.90;;;;;;5222047;28;20025;-79
2022/06/03 11:23:24;;;;;;;1.70;1.60;;;35.10;99.90;;;;;;5222972;28;20029;-79
2022/06/03 11:26:01;;;;;;;1.70;1.60;;;34.00;99.90;;;;;;5258654;28;20032;-80
2022/06/03 11:28:38;;;;;;;1.60;1.50;;;33.70;99.90;;;;;;5234849;28;20027;-79
2022/06/03 11:31:17;;;;;;;2.45;1.38;;;33.80;99.90;;;;;;5221853;28;20037;-81
2022/06/03 11:33:53;;;;;;;3.28;1.20;;;34.50;99.90;;;;;;5243113;28;20031;-79
2022/06/03 11:36:38;;;;;;;2.40;1.70;;;34.10;99.90;;;;;;5237763;28;20025;-79
2022/06/03 11:39:20;;;;;;;1.25;1.15;;;33.30;99.90;;;;;;5242774;28;20024;-78
2022/06/03 11:42:01;;;;;;;1.98;1.60;;;33.00;99.90;;;;;;5225905;28;20459;-76
2022/06/03 11:44:47;;;;;;;1.92;1.67;;;34.60;99.90;;;;;;5251391;28;20024;-81
2022/06/03 11:47:49;;;;;;;1.80;1.40;;;33.90;99.90;;;;;;5266137;28;20028;-79
2022/06/03 11:50:26;;;;;;;2.08;1.50;;;34.30;99.90;;;;;;5265786;28;20026;-78
2022/06/03 11:52:58;;;;;;;1.52;1.42;;;35.40;99.90;;;;;;5224555;28;20045;-78
2022/06/03 11:55:32;;;;;;;1.30;1.20;;;35.20;99.90;;;;;;5235708;28;20020;-79
2022/06/03 11:58:33;;;;;;;1.52;1.42;;;33.70;99.90;;;;;;5266995;28;20024;-77
2022/06/03 12:01:12;;;;;;;1.77;1.60;;;32.70;99.90;;;;;;5209983;28;20040;-79
2022/06/03 12:04:07;;;;;;;1.33;1.23;;;33.20;99.90;;;;;;5244481;28;20043;-78
2022/06/03 12:06:48;;;;;;;1.75;1.60;;;34.20;99.90;;;;;;5232766;28;20040;-80
2022/06/03 12:09:47;;;;;;;1.17;1.13;;;35.30;99.90;;;;;;5234216;28;20034;-80
2022/06/03 12:15:44;;;;;;;1.45;1.35;;;37.10;99.90;;;;;;5227483;28;20350;-78
2022/06/03 12:18:42;;;;;;;2.60;1.40;;;36.40;99.90;;;;;;5193344;28;20025;-80
2022/06/03 12:21:43;;;;;;;1.40;1.30;;;35.90;99.90;;;;;;5208545;28;20031;-82
2022/06/03 12:24:33;;;;;;;1.40;1.30;;;35.00;99.90;;;;;;5212536;28;20039;-79
2022/06/03 12:27:30;;;;;;;1.40;1.30;;;34.70;99.90;;;;;;5233317;28;20029;-79
2022/06/03 12:30:31;;;;;;;1.30;1.20;;;35.00;99.90;;;;;;5227741;28;20047;-78
2022/06/03 12:33:09;;;;;;;1.77;1.52;;;35.50;99.90;;;;;;5246678;28;20032;-79
2022/06/03 12:35:43;;;;;;;1.70;1.60;;;35.60;99.90;;;;;;5247205;28;20032;-76
2022/06/03 12:38:20;;;;;;;1.10;1.10;;;36.20;99.90;;;;;;5244376;28;20048;-79
2022/06/03 12:40:57;;;;;;;1.40;1.30;;;37.40;99.90;;;;;;5212606;28;20062;-78
2022/06/03 12:43:46;;;;;;;1.50;1.40;;;36.00;99.90;;;;;;5226034;28;20206;-79
2022/06/03 12:46:44;;;;;;;1.45;1.30;;;36.50;99.90;;;;;;5229707;28;20024;-80
2022/06/03 12:49:37;;;;;;;1.75;1.55;;;36.70;99.90;;;;;;5246987;28;21056;-78
2022/06/03 12:52:12;;;;;;;1.40;1.30;;;36.20;99.90;;;;;;5246890;28;20358;-79
2022/06/03 12:54:52;;;;;;;1.70;1.48;;;35.40;99.90;;;;;;5246971;28;20036;-79
2022/06/03 12:57:39;;;;;;;2.75;1.15;;;34.70;99.90;;;;;;5247243;28;20042;-79
2022/06/03 13:00:14;;;;;;;1.40;1.30;;;34.60;99.90;;;;;;5246935;28;20020;-79
2022/06/03 13:03:00;;;;;;;1.35;1.25;;;34.70;99.90;;;;;;5230783;28;20026;-79
2022/06/03 13:05:41;;;;;;;1.30;1.10;;;35.10;99.90;;;;;;5234995;28;20897;-79
2022/06/03 13:08:30;;;;;;;1.77;1.40;;;35.10;99.90;;;;;;5246344;28;20033;-80
2022/06/03 13:11:22;;;;;;;1.50;1.40;;;35.20;99.90;;;;;;5235621;28;20307;-79
2022/06/03 13:13:56;;;;;;;1.65;1.40;;;34.80;99.90;;;;;;5208269;28;20029;-82
2022/06/03 13:16:35;;;;;;;1.38;1.27;;;35.20;99.90;;;;;;5230335;28;20027;-83
2022/06/03 13:19:22;;;;;;;1.20;1.15;;;35.40;99.90;;;;;;5209832;28;20033;-83
2022/06/03 13:22:07;;;;;;;1.35;1.25;;;35.00;99.90;;;;;;5212632;28;20349;-81
2022/06/03 13:24:42;;;;;;;1.23;1.20;;;36.00;99.90;;;;;;5233628;28;20027;-81
2022/06/03 13:27:23;;;;;;;1.45;1.35;;;36.10;99.90;;;;;;5246214;28;20032;-84
2022/06/03 13:29:57;;;;;;;2.17;1.27;;;36.20;99.90;;;;;;5222374;28;20355;-82
2022/06/03 13:32:37;;;;;;;;;;;35.50;99.90;;;;;;5244552;28;20040;-81
2022/06/03 13:35:18;;;;;;;1.10;1.10;;;35.20;99.90;;;;;;5229304;28;19913;-81
2022/06/03 13:38:09;;;;;;;1.63;1.52;;;34.30;99.90;;;;;;5256300;28;20016;-81
2022/06/03 13:42:57;;;;;;;1.58;1.20;;;33.40;99.90;;;;;;5266470;28;20016;-78
2022/06/03 13:43:32;;;;;;;1.40;1.30;;;33.10;99.90;;;;;;5243873;28;20033;-79
2022/06/03 13:46:07;;;;;;;1.48;1.38;;;33.50;99.90;;;;;;5231062;28;20100;-80
2022/06/03 13:48:42;;;;;;;2.58;1.60;;;34.40;99.90;;;;;;5232083;28;20225;-82
2022/06/03 13:51:30;;;;;;;3.10;1.40;;;35.50;99.90;;;;;;5233181;28;20044;-76
2022/06/03 13:54:44;;;;;;;1.70;1.60;;;35.30;99.90;;;;;;5233776;28;20024;-80
2022/06/03 13:57:29;;;;;;;1.65;1.50;;;34.80;99.90;;;;;;5230149;28;20050;-78
2022/06/03 14:00:18;;;;;;;1.50;1.40;;;34.00;99.90;;;;;;5249607;28;20024;-78
2022/06/03 14:03:03;;;;;;;1.70;1.60;;;33.40;99.90;;;;;;5254273;28;20318;-79
2022/06/03 14:05:41;;;;;;;1.63;1.48;;;32.90;99.90;;;;;;5260431;28;20058;-78
2022/06/03 14:08:20;;;;;;;1.30;1.20;;;33.10;99.90;;;;;;5265882;28;20027;-78
2022/06/03 14:11:16;;;;;;;1.27;1.23;;;33.80;99.90;;;;;;5232614;28;20020;-82
2022/06/03 14:14:12;;;;;;;2.03;1.65;;;33.60;99.90;;;;;;5209976;28;20502;-81
2022/06/03 14:17:03;;;;;;;1.52;1.42;;;33.90;99.90;;;;;;5208970;28;20021;-78
2022/06/03 14:19:46;;;;;;;1.50;1.40;;;34.60;99.90;;;;;;5251510;28;20035;-81
2022/06/03 14:22:39;;;;;;;1.42;1.33;;;34.30;99.90;;;;;;5232537;28;20028;-79
2022/06/03 14:25:31;;;;;;;1.70;1.60;;;33.40;99.90;;;;;;5231706;28;20024;-78
2022/06/03 14:28:18;;;;;;;1.40;1.30;;;33.60;99.90;;;;;;5248236;28;20018;-78
2022/06/03 14:31:03;;;;;;;1.67;1.27;;;34.00;99.90;;;;;;5245867;28;20028;-81
2022/06/03 14:33:43;;;;;;;1.58;1.48;;;34.60;99.90;;;;;;5254142;28;20028;-81
2022/06/03 14:36:21;;;;;;;1.38;1.27;;;35.20;99.90;;;;;;5249623;28;20035;-79
2022/06/03 14:39:01;;;;;;;1.40;1.30;;;35.90;99.90;;;;;;5232883;28;20271;-82
2022/06/03 14:41:38;;;;;;;1.60;1.50;;;36.20;99.90;;;;;;5232526;28;20315;-84
2022/06/03 14:44:16;;;;;;;1.70;1.60;;;34.60;99.90;;;;;;5248546;28;20022;-80
2022/06/03 14:47:12;;;;;;;1.38;1.27;;;34.60;99.90;;;;;;5247894;28;20092;-79
2022/06/03 14:50:00;;;;;;;1.63;1.52;;;34.60;99.90;;;;;;5241828;28;20344;-84
2022/06/03 14:52:40;;;;;;;1.40;1.30;;;34.00;99.90;;;;;;5217737;28;20031;-83
2022/06/03 14:55:14;;;;;;;1.60;1.50;;;33.00;99.90;;;;;;5242201;28;20342;-80
2022/06/03 14:57:54;;;;;;;1.70;1.50;;;32.90;99.90;;;;;;5246886;28;20472;-78
2022/06/03 15:00:34;;;;;;;1.50;1.40;;;32.90;99.90;;;;;;5229005;28;20071;-79
2022/06/03 15:04:02;;;;;;;3.28;1.40;;;32.80;99.90;;;;;;5234026;28;20054;-79
2022/06/03 15:06:40;;;;;;;1.60;1.50;;;32.40;99.90;;;;;;5216640;28;20063;-82
2022/06/03 15:09:37;;;;;;;1.55;1.45;;;31.30;99.90;;;;;;5179691;28;20054;-79
2022/06/03 15:12:23;;;;;;;1.30;1.20;;;31.50;99.90;;;;;;5224561;28;20041;-77